Ana Sayfa
METAR-TAF:

METAR-TAF

Havaalanları :

Kununurra, Avustralya

Enlem: 15-46S, Boylam: 128-42E, yükseklik: 44 m

Güncel hava durumu gözlemi

Rapor saat 18:30 UTC de 41 dakika önce yapıldı.
Rüzgar doğu/kuzeydoğudan 3 kt
Sıcaklık 27°C
Nem 84%
Basınç 1006 hPa
Görüş mesafesi 10 km veya daha fazla

METAR: YPKU 101830Z AUTO 06003KT 9999 // NCD 27/24 Q1006 RF00.0/000.0

Saat: 03:11 (19:11 UTC)

Tahmin

Rapor saat 12:19 UTC de 6 saat ve 52 dakika önce yapıldı.
Ayın 10'si saat 12 UTC'den ayın 11'si saat 02 UTC'ye kadar geçerli Tahmin
Rüzgar değişken yönden 5 kt
Görüş mesafesi 10 km veya daha fazla
1500 m altında bulut yok ve kümülonimbus yok
Ayın 11'si saat 0000 UTC'den
Rüzgar kuzey/kuzeydoğudan 10 kt
Görüş mesafesi 10 km veya daha fazla
1500 m altında bulut yok ve kümülonimbus yok

TAF: YPKU 101219Z 1012/1102 VRB05KT CAVOK FM110000 03010KT CAVOK

4.000'den fazla havaalanı için hava durumu gözlemleri ve tahminleri (METAR ve TAF raporları).

Kullanılabilir istasyonlar harita üzerinde sarı ve kırmızı noktalarla gösterilir.

İstasyonun adını görmek için fareyi noktanın üzerinde gezdirin.

Sonrasında hava gözlem ve tahminlerini görmek için tıklayın.

Haritayı değiştirmek için: yaklaştırmak için siyah artı işaretli yeşil düğmeye ve uzaklaştırmak için de eksi işaretli düğmeye hızla tıklayın; bitişik haritalar için yeşil okları kullanın.


METAR-TAF: